createdAt,value
2019-04-23T00:00:03.695Z,53.59
2019-04-23T00:00:45.623Z,53.59
2019-04-23T00:01:54.389Z,53.19
2019-04-23T00:02:51.216Z,53.78
2019-04-23T00:03:45.842Z,53.70
2019-04-23T00:04:45.540Z,53.80
2019-04-23T00:05:48.651Z,53.29
2019-04-23T00:08:07.680Z,53.70
2019-04-23T00:09:07.296Z,53.39
2019-04-23T00:09:47.008Z,53.70
2019-04-23T00:10:44.510Z,53.50
2019-04-23T00:11:49.585Z,53.29
2019-04-23T00:12:49.638Z,53.39
2019-04-23T00:13:49.862Z,53.59
2019-04-23T00:15:03.390Z,53.72
2019-04-23T00:15:51.942Z,53.59
2019-04-23T00:16:45.938Z,53.50
2019-04-23T00:17:48.132Z,53.39
2019-04-23T00:18:46.438Z,53.59
2019-04-23T00:19:53.691Z,53.29
2019-04-23T00:20:54.930Z,53.39
2019-04-23T00:21:47.030Z,53.29
2019-04-23T00:22:53.287Z,53.59
2019-04-23T00:23:53.119Z,53.29
2019-04-23T00:25:19.161Z,53.09
2019-04-23T00:26:53.767Z,53.11
2019-04-23T00:27:55.241Z,53.29
2019-04-23T00:28:51.966Z,53.83
2019-04-23T00:30:48.121Z,52.98
2019-04-23T00:31:53.225Z,53.42
2019-04-23T00:32:48.049Z,53.32
2019-04-23T00:33:46.446Z,53.32
2019-04-23T00:34:49.719Z,53.72
2019-04-23T00:35:43.978Z,53.32
2019-04-23T00:36:45.958Z,53.42
2019-04-23T00:37:41.871Z,53.42
2019-04-23T00:38:45.472Z,53.52
2019-04-23T00:39:47.068Z,53.63
2019-04-23T00:40:43.943Z,53.63
2019-04-23T00:41:52.918Z,53.32
2019-04-23T00:43:52.740Z,53.52
2019-04-23T00:44:54.403Z,53.52
2019-04-23T00:45:55.126Z,53.42
2019-04-23T00:46:48.955Z,53.32
2019-04-23T00:47:48.494Z,53.11
2019-04-23T00:49:51.338Z,53.11
2019-04-23T00:50:52.457Z,53.32
2019-04-23T00:51:50.152Z,53.52
2019-04-23T00:52:45.727Z,53.72
2019-04-23T00:53:43.746Z,53.32
2019-04-23T00:54:49.344Z,52.61
2019-04-23T00:55:47.756Z,52.81
2019-04-23T00:56:44.605Z,52.71
2019-04-23T00:57:56.098Z,52.91
2019-04-23T00:58:48.948Z,52.20
2019-04-23T00:59:59.546Z,52.71
2019-04-23T01:00:45.996Z,52.30
2019-04-23T01:01:50.979Z,52.10
2019-04-23T01:02:57.347Z,52.30
2019-04-23T01:03:50.441Z,52.91
2019-04-23T01:04:48.033Z,52.00
2019-04-23T01:05:50.292Z,52.20
2019-04-23T01:06:45.985Z,52.50
2019-04-23T01:07:48.318Z,52.81
2019-04-23T01:08:44.168Z,52.40
2019-04-23T01:09:56.106Z,53.02
2019-04-23T01:10:52.031Z,52.00
2019-04-23T01:11:43.307Z,51.39
2019-04-23T01:14:48.224Z,51.48
2019-04-23T01:15:49.448Z,51.48
2019-04-23T01:16:45.936Z,51.48
2019-04-23T01:17:47.515Z,51.89
2019-04-23T01:19:51.799Z,51.48
2019-04-23T01:20:50.311Z,51.89
2019-04-23T01:21:24.633Z,52.12
2019-04-23T01:22:23.612Z,51.89
2019-04-23T01:23:31.998Z,51.79
2019-04-23T01:24:28.729Z,51.79
2019-04-23T01:25:35.128Z,51.48
2019-04-23T01:27:00.674Z,51.89
2019-04-23T01:28:02.521Z,51.39
2019-04-23T01:28:55.950Z,51.41
2019-04-23T01:29:54.595Z,51.72
2019-04-23T01:30:55.330Z,52.43
2019-04-23T01:31:53.540Z,51.61
2019-04-23T01:32:57.670Z,51.59
2019-04-23T01:33:51.406Z,51.92
2019-04-23T01:34:59.419Z,51.92
2019-04-23T01:36:07.310Z,51.51
2019-04-23T01:36:52.364Z,51.61
2019-04-23T01:37:47.732Z,51.92
2019-04-23T01:39:09.882Z,52.33
2019-04-23T01:39:52.426Z,51.81
2019-04-23T01:40:45.906Z,51.92
2019-04-23T01:41:58.373Z,52.22
2019-04-23T01:43:47.127Z,51.31
2019-04-23T01:45:03.468Z,51.31
2019-04-23T01:45:48.011Z,51.72
2019-04-23T01:47:07.745Z,51.41
2019-04-23T01:47:49.639Z,51.81
2019-04-23T01:48:52.126Z,51.41
2019-04-23T01:50:01.568Z,51.72
2019-04-23T01:51:58.437Z,51.92
2019-04-23T01:52:55.116Z,52.22
2019-04-23T01:53:49.646Z,51.51
2019-04-23T01:54:52.248Z,51.51
2019-04-23T01:55:56.553Z,51.92
2019-04-23T01:56:49.399Z,51.84
2019-04-23T01:57:58.173Z,50.90
2019-04-23T01:59:07.887Z,50.80
2019-04-23T01:59:58.451Z,50.62
2019-04-23T02:02:05.136Z,51.53
2019-04-23T02:02:55.681Z,51.94
2019-04-23T02:03:57.971Z,51.43
2019-04-23T02:04:58.431Z,51.43
2019-04-23T02:05:52.840Z,51.13
2019-04-23T02:06:50.499Z,51.53
2019-04-23T02:08:52.167Z,51.94
2019-04-23T02:10:02.312Z,51.43
2019-04-23T02:11:00.355Z,51.53
2019-04-23T02:11:50.668Z,51.13
2019-04-23T02:12:55.640Z,51.84
2019-04-23T02:13:56.801Z,50.72
2019-04-23T02:14:50.142Z,51.25
2019-04-23T02:15:47.738Z,50.84
2019-04-23T02:16:50.312Z,51.35
2019-04-23T02:17:52.061Z,51.15
2019-04-23T02:18:56.831Z,51.35
2019-04-23T02:19:59.445Z,51.25
2019-04-23T02:20:50.972Z,51.56
2019-04-23T02:21:55.027Z,51.56
2019-04-23T02:22:58.682Z,51.05
2019-04-23T02:23:52.165Z,51.56
2019-04-23T02:24:55.948Z,51.05
2019-04-23T02:25:49.950Z,50.84
2019-04-23T02:27:05.893Z,51.35
2019-04-23T02:29:13.327Z,51.15
2019-04-23T02:31:15.422Z,51.68
2019-04-23T02:33:29.316Z,51.76
2019-04-23T02:35:11.680Z,51.15
2019-04-23T02:36:57.125Z,50.84
2019-04-23T02:38:58.113Z,51.35
2019-04-23T02:41:04.721Z,51.05
2019-04-23T02:42:16.400Z,51.15
2019-04-23T02:44:04.968Z,51.35
2019-04-23T02:44:56.346Z,51.48
2019-04-23T02:46:05.464Z,51.68
2019-04-23T02:48:01.491Z,51.68
2019-04-23T02:48:56.268Z,51.58
2019-04-23T02:53:02.548Z,51.17
2019-04-23T02:54:10.182Z,51.58
2019-04-23T02:54:57.082Z,51.38
2019-04-23T02:56:05.761Z,51.07
2019-04-23T02:56:55.635Z,51.28
2019-04-23T02:59:06.177Z,51.99
2019-04-23T03:01:19.401Z,51.68
2019-04-23T03:02:05.772Z,50.87
2019-04-23T03:03:01.655Z,51.58
2019-04-23T03:04:58.097Z,50.87
2019-04-23T03:07:14.196Z,51.89
2019-04-23T03:07:54.020Z,50.87
2019-04-23T03:13:27.867Z,50.77
2019-04-23T03:14:59.084Z,51.40
2019-04-23T03:17:03.006Z,51.38
2019-04-23T03:18:04.050Z,50.87
2019-04-23T03:19:59.086Z,50.79
2019-04-23T03:21:12.520Z,51.40
2019-04-23T03:22:00.133Z,51.20
2019-04-23T03:23:03.094Z,51.40
2019-04-23T03:24:00.031Z,51.20
2019-04-23T03:25:56.881Z,50.99
2019-04-23T03:27:09.887Z,50.69
2019-04-23T03:27:50.057Z,50.48
2019-04-23T03:35:09.208Z,51.12
2019-04-23T03:37:55.869Z,50.71
2019-04-23T03:38:54.306Z,51.02
2019-04-23T03:40:03.810Z,50.92
2019-04-23T03:41:54.516Z,49.38
2019-04-23T03:42:57.684Z,49.90
2019-04-23T03:43:49.163Z,49.79
2019-04-23T03:45:07.643Z,50.00
2019-04-23T03:46:11.847Z,50.00
2019-04-23T03:46:49.878Z,50.28
2019-04-23T03:48:16.807Z,50.31
2019-04-23T03:48:54.853Z,50.20
2019-04-23T03:50:09.202Z,50.31
2019-04-23T03:50:43.641Z,50.10
2019-04-23T03:53:14.035Z,49.71
2019-04-23T03:54:49.059Z,49.38
2019-04-23T03:56:17.827Z,50.10
2019-04-23T03:57:12.510Z,49.51
2019-04-23T03:57:52.648Z,50.10
2019-04-23T04:00:58.788Z,49.82
2019-04-23T04:01:58.104Z,50.02
2019-04-23T04:04:51.886Z,48.59
2019-04-23T04:06:03.299Z,48.49
2019-04-23T04:07:05.588Z,48.80
2019-04-23T04:09:13.257Z,48.80
2019-04-23T04:11:09.361Z,49.10
2019-04-23T04:11:54.972Z,48.59
2019-04-23T04:14:10.208Z,49.30
2019-04-23T04:19:19.906Z,49.41
2019-04-23T04:19:56.703Z,48.59
2019-04-23T04:21:03.216Z,48.80
2019-04-23T04:21:58.551Z,49.21
2019-04-23T04:23:16.729Z,49.00
2019-04-23T04:24:05.173Z,48.69
2019-04-23T04:26:58.053Z,48.47
2019-04-23T04:33:23.982Z,48.18
2019-04-23T04:34:11.310Z,48.49
2019-04-23T04:35:12.506Z,48.39
2019-04-23T04:35:59.198Z,48.49
2019-04-23T04:38:54.831Z,48.80
2019-04-23T04:41:01.121Z,47.88
2019-04-23T04:41:59.517Z,48.51
2019-04-23T04:43:06.761Z,48.59
2019-04-23T04:44:05.196Z,48.82
2019-04-23T04:45:14.184Z,49.02
2019-04-23T04:46:49.953Z,49.43
2019-04-23T04:48:01.299Z,48.82
2019-04-23T04:48:55.812Z,48.82
2019-04-23T04:51:06.166Z,48.51
2019-04-23T04:52:57.830Z,48.80
2019-04-23T04:54:04.155Z,48.18
2019-04-23T04:54:50.322Z,48.18
2019-04-23T04:57:00.164Z,48.80
2019-04-23T05:00:08.307Z,48.72
2019-04-23T05:01:58.532Z,49.74
2019-04-23T05:03:46.006Z,49.82
2019-04-23T05:05:31.327Z,50.04
2019-04-23T05:06:11.466Z,49.13
2019-04-23T05:07:02.574Z,48.39
2019-04-23T05:09:02.118Z,49.22
2019-04-23T05:10:09.326Z,48.80
2019-04-23T05:13:01.731Z,48.18
2019-04-23T05:13:57.773Z,48.88
2019-04-23T05:15:50.161Z,48.69
2019-04-23T05:16:50.822Z,48.80
2019-04-23T05:17:59.961Z,47.78
2019-04-23T05:18:53.485Z,48.28
2019-04-23T05:19:51.343Z,48.28
2019-04-23T05:21:05.802Z,47.98
2019-04-23T05:23:01.865Z,48.08
2019-04-23T05:24:48.631Z,48.18
2019-04-23T05:25:51.348Z,47.98
2019-04-23T05:26:43.011Z,47.78
2019-04-23T05:29:55.957Z,47.88
2019-04-23T05:30:52.178Z,48.18
2019-04-23T05:31:47.053Z,48.08
2019-04-23T05:32:51.816Z,48.18
2019-04-23T05:33:52.179Z,48.28
2019-04-23T05:34:46.696Z,48.69
2019-04-23T05:36:53.710Z,48.18
2019-04-23T05:38:05.374Z,48.39
2019-04-23T05:39:12.151Z,47.88
2019-04-23T05:39:49.492Z,48.28
2019-04-23T05:40:59.333Z,48.39
2019-04-23T05:41:45.230Z,47.57
2019-04-23T05:44:50.316Z,47.78
2019-04-23T05:45:46.583Z,47.98
2019-04-23T05:46:49.013Z,48.18
2019-04-23T05:47:50.861Z,48.18
2019-04-23T05:48:54.380Z,48.28
2019-04-23T05:51:57.429Z,47.96
2019-04-23T05:52:58.031Z,49.90
2019-04-23T05:54:56.357Z,47.65
2019-04-23T05:55:57.076Z,48.26
2019-04-23T05:56:44.386Z,47.86
2019-04-23T05:57:49.133Z,47.34
2019-04-23T05:58:52.652Z,47.86
2019-04-23T05:59:50.932Z,48.16
2019-04-23T06:00:54.508Z,48.06
2019-04-23T06:03:56.470Z,47.75
2019-04-23T06:04:49.611Z,47.75
2019-04-23T06:07:49.792Z,47.86
2019-04-23T06:08:49.666Z,47.45
2019-04-23T06:09:48.142Z,47.96
2019-04-23T06:10:48.139Z,47.34
2019-04-23T06:11:57.105Z,47.32
2019-04-23T06:12:45.472Z,48.55
2019-04-23T06:13:52.515Z,47.32
2019-04-23T06:15:47.997Z,47.45
2019-04-23T06:16:49.273Z,47.75
2019-04-23T06:17:47.437Z,46.71
2019-04-23T06:19:52.571Z,47.63
2019-04-23T06:20:56.155Z,47.32
2019-04-23T06:21:57.796Z,46.92
2019-04-23T06:23:06.570Z,47.02
2019-04-23T06:24:14.963Z,46.61
2019-04-23T06:24:46.751Z,46.81
2019-04-23T06:26:57.517Z,47.02
2019-04-23T06:27:49.717Z,47.83
2019-04-23T06:28:50.753Z,47.42
2019-04-23T06:29:46.532Z,47.71
2019-04-23T06:31:49.235Z,47.09
2019-04-23T06:32:47.802Z,48.32
2019-04-23T06:33:48.076Z,47.30
2019-04-23T06:34:47.315Z,47.40
2019-04-23T06:35:50.331Z,46.89
2019-04-23T06:38:54.466Z,46.47
2019-04-23T06:39:49.378Z,45.95
2019-04-23T06:40:47.515Z,46.26
2019-04-23T06:41:52.721Z,46.97
2019-04-23T06:42:49.353Z,46.47
2019-04-23T06:43:54.819Z,46.15
2019-04-23T06:44:47.008Z,45.65
2019-04-23T06:45:45.987Z,46.06
2019-04-23T06:46:52.138Z,46.56
2019-04-23T06:47:44.903Z,47.08
2019-04-23T06:48:47.114Z,46.85
2019-04-23T06:49:50.932Z,47.17
2019-04-23T06:50:51.073Z,46.03
2019-04-23T06:51:55.124Z,45.53
2019-04-23T06:52:48.530Z,46.22
2019-04-23T06:53:43.141Z,45.73
2019-04-23T06:54:47.708Z,45.10
2019-04-23T06:55:49.508Z,45.40
2019-04-23T06:56:51.055Z,46.24
2019-04-23T06:57:52.271Z,45.20
2019-04-23T06:58:45.622Z,46.11
2019-04-23T07:00:04.262Z,46.93
2019-04-23T07:00:51.312Z,46.83
2019-04-23T07:01:53.189Z,46.11
2019-04-23T07:02:51.273Z,46.32
2019-04-23T07:03:51.793Z,46.01
2019-04-23T07:06:00.200Z,45.30
2019-04-23T07:06:56.594Z,45.71
2019-04-23T07:09:05.695Z,46.01
2019-04-23T07:09:47.136Z,45.91
2019-04-23T07:10:54.324Z,46.01
2019-04-23T07:11:42.911Z,45.20
2019-04-23T07:12:47.201Z,46.32
2019-04-23T07:13:53.172Z,45.91
2019-04-23T07:14:51.796Z,45.71
2019-04-23T07:16:03.228Z,45.50
2019-04-23T07:16:46.887Z,45.20
2019-04-23T07:17:44.821Z,46.72
2019-04-23T07:18:48.953Z,46.72
2019-04-23T07:19:50.136Z,45.38
2019-04-23T07:20:50.585Z,45.48
2019-04-23T07:21:54.493Z,45.38
2019-04-23T07:22:53.401Z,45.68
2019-04-23T07:23:54.407Z,46.50
2019-04-23T07:24:47.233Z,44.77
2019-04-23T07:25:50.059Z,45.68
2019-04-23T07:26:56.311Z,45.38
2019-04-23T07:27:43.191Z,45.99
2019-04-23T07:30:51.583Z,45.87
2019-04-23T07:31:50.020Z,45.06
2019-04-23T07:32:52.954Z,45.06
2019-04-23T07:33:52.209Z,45.46
2019-04-23T07:34:49.545Z,45.06
2019-04-23T07:35:49.384Z,45.97
2019-04-23T07:36:47.443Z,45.99
2019-04-23T07:37:56.889Z,46.37
2019-04-23T07:38:54.689Z,45.67
2019-04-23T07:40:07.640Z,46.17
2019-04-23T07:40:46.741Z,45.76
2019-04-23T07:43:05.275Z,46.05
2019-04-23T07:43:59.431Z,45.84
2019-04-23T07:44:50.096Z,46.66
2019-04-23T07:45:54.750Z,45.75
2019-04-23T07:46:53.161Z,45.75
2019-04-23T07:47:51.959Z,44.93
2019-04-23T07:48:43.963Z,46.56
2019-04-23T07:49:49.104Z,46.56
2019-04-23T07:50:49.439Z,45.72
2019-04-23T07:51:54.052Z,45.93
2019-04-23T07:52:50.686Z,45.93
2019-04-23T07:53:54.512Z,45.21
2019-04-23T07:54:52.609Z,46.13
2019-04-23T07:55:51.696Z,46.53
2019-04-23T07:56:53.042Z,45.62
2019-04-23T07:57:52.123Z,45.83
2019-04-23T07:58:39.313Z,45.11
2019-04-23T07:59:50.277Z,45.60
2019-04-23T08:01:01.949Z,45.80
2019-04-23T08:01:51.170Z,45.09
2019-04-23T08:02:44.177Z,44.89
2019-04-23T08:03:48.302Z,45.40
2019-04-23T08:05:04.898Z,45.37
2019-04-23T08:05:45.725Z,45.40
2019-04-23T08:06:45.963Z,44.68
2019-04-23T08:07:53.672Z,44.97
2019-04-23T08:08:48.810Z,45.07
2019-04-23T08:10:02.418Z,44.99
2019-04-23T08:11:00.490Z,45.07
2019-04-23T08:12:02.989Z,45.28
2019-04-23T08:12:49.536Z,45.17
2019-04-23T08:14:53.557Z,45.68
2019-04-23T08:15:48.099Z,45.07
2019-04-23T08:16:42.504Z,44.46
2019-04-23T08:17:42.809Z,44.97
2019-04-23T08:20:49.640Z,45.05
2019-04-23T08:21:43.882Z,44.87
2019-04-23T08:22:47.517Z,44.87
2019-04-23T08:23:50.708Z,45.25
2019-04-23T08:25:01.197Z,45.05
2019-04-23T08:25:56.472Z,44.24
2019-04-23T08:26:50.198Z,45.05
2019-04-23T08:27:41.603Z,45.56
2019-04-23T08:29:05.389Z,45.15
2019-04-23T08:29:36.351Z,44.52
2019-04-23T08:30:50.231Z,45.03
2019-04-23T08:31:52.468Z,44.82
2019-04-23T08:32:49.201Z,44.22
2019-04-23T08:33:49.959Z,44.52
2019-04-23T08:35:50.952Z,44.30
2019-04-23T08:36:48.634Z,44.70
2019-04-23T08:38:12.018Z,44.81
2019-04-23T08:38:44.218Z,43.79
2019-04-23T08:40:57.216Z,44.20
2019-04-23T08:41:59.967Z,43.89
2019-04-23T08:45:00.881Z,44.10
2019-04-23T08:45:51.350Z,43.99
2019-04-23T08:46:56.867Z,43.89
2019-04-23T08:48:09.564Z,43.79
2019-04-23T08:48:55.834Z,44.40
2019-04-23T08:49:47.614Z,44.30
2019-04-23T08:51:54.943Z,44.27
2019-04-23T08:52:53.903Z,43.77
2019-04-23T08:55:12.321Z,43.87
2019-04-23T08:56:50.053Z,43.57
2019-04-23T08:57:43.121Z,43.87
2019-04-23T08:58:41.576Z,43.57
2019-04-23T09:01:59.459Z,44.26
2019-04-23T09:02:54.043Z,44.96
2019-04-23T09:03:41.842Z,44.36
2019-04-23T09:05:00.188Z,44.15
2019-04-23T09:06:47.214Z,43.24
2019-04-23T09:07:56.929Z,42.52
2019-04-23T09:08:43.740Z,42.72
2019-04-23T09:09:53.423Z,43.43
2019-04-23T09:10:50.269Z,44.13
2019-04-23T09:13:53.543Z,43.52
2019-04-23T09:14:48.637Z,43.91
2019-04-23T09:16:54.318Z,43.20
2019-04-23T09:17:53.092Z,43.81
2019-04-23T09:18:51.452Z,42.40
2019-04-23T09:20:07.019Z,43.51
2019-04-23T09:20:37.471Z,42.27
2019-04-23T09:21:59.236Z,42.80
2019-04-23T09:22:45.893Z,41.87
2019-04-23T09:23:46.757Z,42.49
2019-04-23T09:24:47.111Z,42.17
2019-04-23T09:25:50.604Z,41.97
2019-04-23T09:26:56.212Z,42.07
2019-04-23T09:27:48.650Z,42.58
2019-04-23T09:28:51.640Z,41.87
2019-04-23T09:29:51.443Z,42.17
2019-04-23T09:30:49.697Z,42.27
2019-04-23T09:32:07.458Z,41.46
2019-04-23T09:32:47.034Z,41.56
2019-04-23T09:34:57.135Z,41.55
2019-04-23T09:35:46.735Z,41.87
2019-04-23T09:36:49.152Z,42.15
2019-04-23T09:37:48.841Z,40.95
2019-04-23T09:38:45.011Z,41.56
2019-04-23T09:39:51.158Z,41.55
2019-04-23T09:41:02.988Z,41.55
2019-04-23T09:41:48.333Z,41.95
2019-04-23T09:43:00.893Z,40.53
2019-04-23T09:43:46.034Z,41.14
2019-04-23T09:45:48.545Z,41.64
2019-04-23T09:46:45.120Z,40.53
2019-04-23T09:47:50.731Z,40.53
2019-04-23T09:48:54.594Z,41.63
2019-04-23T09:49:47.028Z,40.52
2019-04-23T09:50:50.769Z,39.81
2019-04-23T09:52:56.769Z,40.72
2019-04-23T09:53:47.299Z,39.91
2019-04-23T09:54:57.731Z,40.31
2019-04-23T09:55:57.531Z,39.89
2019-04-23T09:57:51.554Z,40.09
2019-04-23T09:58:45.845Z,39.79
2019-04-23T10:00:13.124Z,40.09
2019-04-23T10:00:48.691Z,39.28
2019-04-23T10:01:34.531Z,39.59
2019-04-23T10:02:34.044Z,41.00
2019-04-23T10:03:35.583Z,40.39
2019-04-23T10:04:34.391Z,39.99
2019-04-23T10:05:31.335Z,39.79
2019-04-23T10:06:24.467Z,41.00
2019-04-23T10:07:30.432Z,40.48
2019-04-23T10:08:27.456Z,39.57
2019-04-23T10:09:20.361Z,39.77
2019-04-23T10:10:18.600Z,39.67
2019-04-23T10:11:19.779Z,39.67
2019-04-23T10:12:17.858Z,39.97
2019-04-23T10:13:17.991Z,39.97
2019-04-23T10:14:18.655Z,40.08
2019-04-23T10:15:24.237Z,39.97
2019-04-23T10:16:21.376Z,39.97
2019-04-23T10:17:18.070Z,40.28
2019-04-23T10:18:18.298Z,40.88
2019-04-23T10:19:18.906Z,40.17
2019-04-23T10:20:18.236Z,40.36
2019-04-23T10:21:17.670Z,39.85
2019-04-23T10:22:17.556Z,39.85
2019-04-23T10:23:18.925Z,39.83
2019-04-23T10:24:19.049Z,39.75
2019-04-23T10:25:17.519Z,40.03
2019-04-23T10:26:17.535Z,39.33
2019-04-23T10:27:18.868Z,40.03
2019-04-23T10:28:19.074Z,39.63
2019-04-23T10:29:18.118Z,39.53
2019-04-23T10:30:17.777Z,40.03
2019-04-23T10:31:18.700Z,40.01
2019-04-23T10:32:17.732Z,38.50
2019-04-23T10:33:17.433Z,39.21
2019-04-23T10:34:18.865Z,38.81
2019-04-23T10:35:29.261Z,39.41
2019-04-23T10:36:21.935Z,38.60
2019-04-23T10:37:31.441Z,38.91
2019-04-23T10:38:20.387Z,39.21
2019-04-23T10:39:23.480Z,39.31
2019-04-23T10:40:23.838Z,38.91
2019-04-23T10:41:18.415Z,39.19
2019-04-23T10:42:18.230Z,39.29
2019-04-23T10:43:17.317Z,39.51
2019-04-23T10:44:17.364Z,39.11
2019-04-23T10:45:30.290Z,39.29
2019-04-23T10:46:36.582Z,39.29
2019-04-23T10:47:47.770Z,38.69
2019-04-23T10:49:11.064Z,38.99
2019-04-23T10:50:46.543Z,39.19
2019-04-23T10:51:52.145Z,39.19
2019-04-23T10:52:56.719Z,38.79
2019-04-23T10:53:42.764Z,39.17
2019-04-23T10:54:59.372Z,37.24
2019-04-23T10:55:58.911Z,37.26
2019-04-23T10:56:46.287Z,34.14
2019-04-23T10:57:39.417Z,31.04
2019-04-23T10:58:54.890Z,28.76
2019-04-23T11:00:50.988Z,26.23
2019-04-23T11:01:52.945Z,23.80
2019-04-23T11:02:50.430Z,22.67
2019-04-23T11:03:58.869Z,21.37
2019-04-23T11:04:54.304Z,21.47
2019-04-23T11:06:50.113Z,20.67
2019-04-23T11:07:53.697Z,20.45
2019-04-23T11:08:42.389Z,19.83
2019-04-23T11:10:46.732Z,19.38
2019-04-23T11:11:48.421Z,22.02
2019-04-23T11:13:46.726Z,26.31
2019-04-23T11:14:53.093Z,26.82
2019-04-23T11:15:58.388Z,26.59
2019-04-23T11:16:57.643Z,25.56
2019-04-23T11:17:52.124Z,24.35
2019-04-23T11:18:56.691Z,23.52
2019-04-23T11:20:06.901Z,23.40
2019-04-23T11:21:54.636Z,22.00
2019-04-23T11:22:45.042Z,21.08
2019-04-23T11:24:48.356Z,21.36
2019-04-23T11:25:44.876Z,21.45
2019-04-23T11:28:44.871Z,22.00
2019-04-23T11:29:53.473Z,22.09
2019-04-23T11:30:57.472Z,22.09
2019-04-23T11:31:58.355Z,21.37
2019-04-23T11:33:57.431Z,21.37
2019-04-23T11:35:03.436Z,20.67
2019-04-23T11:36:53.901Z,19.95
2019-04-23T11:41:00.114Z,22.72
2019-04-23T11:42:04.734Z,23.41
2019-04-23T11:42:49.538Z,24.14
2019-04-23T11:43:48.558Z,23.52
2019-04-23T11:44:49.876Z,23.74
2019-04-23T11:45:54.051Z,24.04
2019-04-23T11:46:57.454Z,25.38
2019-04-23T11:48:24.606Z,24.87
2019-04-23T11:49:20.615Z,26.43
2019-04-23T11:49:58.184Z,26.98
2019-04-23T11:51:21.867Z,27.90
2019-04-23T11:51:54.419Z,26.72
2019-04-23T11:52:51.584Z,26.07
2019-04-23T11:53:52.525Z,23.55
2019-04-23T11:54:45.370Z,23.30
2019-04-23T11:56:05.561Z,22.28
2019-04-23T11:58:45.791Z,21.87
2019-04-23T11:59:59.514Z,21.67
2019-04-23T12:02:54.333Z,25.59
2019-04-23T12:03:56.651Z,27.51
2019-04-23T12:04:53.224Z,25.80
2019-04-23T12:05:54.710Z,25.59
2019-04-23T12:06:51.001Z,26.40
2019-04-23T12:07:41.363Z,26.93
2019-04-23T12:08:44.669Z,27.65
2019-04-23T12:09:51.164Z,28.66
2019-04-23T12:12:39.899Z,28.87
2019-04-23T12:13:52.176Z,28.87
2019-04-23T12:15:47.850Z,29.58
2019-04-23T12:17:03.943Z,28.47
2019-04-23T12:18:05.357Z,28.50
2019-04-23T12:18:58.056Z,28.90
2019-04-23T12:20:57.198Z,29.80
2019-04-23T12:21:53.164Z,30.11
2019-04-23T12:22:51.246Z,31.24
2019-04-23T12:23:54.493Z,31.55
2019-04-23T12:25:48.382Z,30.78
2019-04-23T12:26:56.258Z,31.51
2019-04-23T12:27:49.918Z,33.01
2019-04-23T12:30:49.094Z,32.93
2019-04-23T12:31:53.030Z,33.23
2019-04-23T12:33:51.987Z,31.79
2019-04-23T12:34:52.956Z,31.70
2019-04-23T12:35:39.008Z,32.81
2019-04-23T12:38:38.827Z,34.48
2019-04-23T12:39:49.459Z,33.98
2019-04-23T12:40:48.079Z,34.19
2019-04-23T12:41:45.460Z,36.10
2019-04-23T12:43:42.848Z,35.69
2019-04-23T12:44:51.078Z,34.98
2019-04-23T12:45:50.496Z,34.38
2019-04-23T12:46:49.132Z,34.58
2019-04-23T12:48:51.964Z,34.48
2019-04-23T12:51:48.699Z,34.38
2019-04-23T12:52:47.645Z,34.78
2019-04-23T12:53:39.947Z,35.60
2019-04-23T12:55:08.606Z,34.89
2019-04-23T12:57:01.186Z,35.60
2019-04-23T12:57:47.283Z,35.71
2019-04-23T12:59:01.710Z,36.21
2019-04-23T12:59:44.351Z,35.80
2019-04-23T13:01:48.893Z,34.14
2019-04-23T13:02:44.293Z,35.96
2019-04-23T13:03:41.587Z,35.36
2019-04-23T13:04:48.856Z,35.98
2019-04-23T13:06:45.815Z,36.21
2019-04-23T13:07:47.174Z,36.20
2019-04-23T13:08:46.178Z,36.30
2019-04-23T13:09:55.758Z,35.31
2019-04-23T13:11:45.628Z,36.32
2019-04-23T13:13:50.311Z,36.21
2019-04-23T13:14:49.572Z,35.61
2019-04-23T13:15:39.942Z,35.39
2019-04-23T13:16:54.066Z,36.82
2019-04-23T13:17:50.590Z,36.30
2019-04-23T13:18:46.957Z,36.40
2019-04-23T13:19:53.669Z,36.28
2019-04-23T13:20:36.850Z,36.26
2019-04-23T13:22:47.631Z,36.38
2019-04-23T13:23:40.996Z,36.18
2019-04-23T13:24:48.990Z,35.68
2019-04-23T13:25:52.829Z,35.28
2019-04-23T13:26:44.658Z,35.88
2019-04-23T13:28:01.991Z,35.18
2019-04-23T13:29:01.421Z,36.08
2019-04-23T13:29:51.864Z,37.00
2019-04-23T13:30:46.121Z,36.20
2019-04-23T13:31:39.696Z,35.89
2019-04-23T13:32:50.066Z,37.00
2019-04-23T13:34:48.490Z,36.98
2019-04-23T13:35:53.310Z,36.90
2019-04-23T13:36:46.793Z,35.89
2019-04-23T13:37:54.525Z,35.56
2019-04-23T13:38:41.789Z,35.43
2019-04-23T13:39:46.894Z,35.43
2019-04-23T13:40:47.510Z,34.41
2019-04-23T13:41:38.868Z,34.71
2019-04-23T13:42:52.559Z,34.59
2019-04-23T13:43:42.553Z,34.21
2019-04-23T13:44:51.521Z,34.73
2019-04-23T13:46:45.545Z,36.08
2019-04-23T13:48:36.049Z,36.72
2019-04-23T13:49:55.012Z,37.42
2019-04-23T13:51:49.746Z,37.32
2019-04-23T13:54:59.666Z,38.04
2019-04-23T13:55:45.076Z,37.05
2019-04-23T13:57:14.430Z,38.46
2019-04-23T13:58:02.326Z,37.57
2019-04-23T13:58:43.354Z,37.67
2019-04-23T13:59:44.598Z,38.38
2019-04-23T14:00:55.700Z,38.96
2019-04-23T14:02:45.992Z,38.56
2019-04-23T14:04:30.842Z,39.16
2019-04-23T14:05:57.399Z,39.26
2019-04-23T14:06:46.450Z,39.56
2019-04-23T14:07:48.386Z,38.96
2019-04-23T14:10:07.240Z,38.56
2019-04-23T14:10:44.847Z,39.26
2019-04-23T14:11:46.587Z,39.78
2019-04-23T14:12:53.696Z,39.38
2019-04-23T14:14:52.152Z,39.78
2019-04-23T14:17:51.571Z,41.53
2019-04-23T14:19:45.533Z,41.73
2019-04-23T14:20:40.777Z,41.93
2019-04-23T14:21:44.525Z,42.03
2019-04-23T14:23:07.895Z,42.24
2019-04-23T14:24:55.510Z,41.83
2019-04-23T14:26:00.035Z,42.05
2019-04-23T14:26:38.319Z,42.76
2019-04-23T14:27:49.499Z,42.25
2019-04-23T14:28:59.307Z,42.76
2019-04-23T14:29:50.326Z,42.86
2019-04-23T14:31:04.839Z,42.15
2019-04-23T14:31:43.204Z,43.06
2019-04-23T14:32:45.443Z,42.96
2019-04-23T14:34:54.692Z,43.36
2019-04-23T14:35:45.376Z,42.86
2019-04-23T14:36:47.776Z,43.16
2019-04-23T14:38:02.431Z,43.46
2019-04-23T14:38:43.800Z,43.38
2019-04-23T14:39:47.612Z,43.59
2019-04-23T14:41:45.011Z,43.38
2019-04-23T14:43:58.050Z,44.49
2019-04-23T14:44:40.559Z,44.49
2019-04-23T14:46:53.031Z,44.97
2019-04-23T14:47:46.372Z,43.99
2019-04-23T14:48:45.846Z,43.88
2019-04-23T14:49:59.358Z,44.79
2019-04-23T14:50:41.238Z,44.49
2019-04-23T14:51:49.843Z,44.01
2019-04-23T14:52:50.622Z,44.79
2019-04-23T14:53:43.746Z,44.41
2019-04-23T14:55:25.206Z,44.61
2019-04-23T14:55:57.032Z,45.32
2019-04-23T14:56:47.242Z,45.42
2019-04-23T14:57:53.628Z,45.42
2019-04-23T14:58:50.777Z,45.92
2019-04-23T14:59:46.831Z,46.42
2019-04-23T15:00:53.833Z,47.23
2019-04-23T15:01:40.281Z,45.82
2019-04-23T15:05:56.809Z,46.55
2019-04-23T15:06:58.208Z,47.15
2019-04-23T15:07:44.958Z,47.75
2019-04-23T15:08:50.190Z,47.88
2019-04-23T15:09:53.532Z,48.18
2019-04-23T15:11:02.530Z,48.26
2019-04-23T15:12:47.912Z,48.18
2019-04-23T15:13:44.547Z,47.88
2019-04-23T15:14:56.395Z,48.69
2019-04-23T15:15:44.121Z,47.88
2019-04-23T15:16:56.408Z,47.88
2019-04-23T15:17:45.084Z,48.28
2019-04-23T15:18:58.085Z,47.38
2019-04-23T15:20:55.890Z,47.38
2019-04-23T15:22:51.123Z,47.88
2019-04-23T15:25:13.494Z,48.18
2019-04-23T15:28:20.393Z,48.21
2019-04-23T15:29:33.648Z,49.21
2019-04-23T15:30:50.851Z,48.91
2019-04-23T15:33:58.682Z,49.11
2019-04-23T15:34:42.968Z,49.72
2019-04-23T15:35:53.295Z,49.41
2019-04-23T15:39:51.251Z,49.24
2019-04-23T15:40:43.733Z,50.12
2019-04-23T15:41:53.104Z,50.04
2019-04-23T15:42:51.591Z,50.95
2019-04-23T15:43:55.244Z,50.75
2019-04-23T15:44:41.818Z,51.45
2019-04-23T15:45:44.885Z,50.24
2019-04-23T15:47:52.505Z,51.23
2019-04-23T15:48:53.989Z,51.15
2019-04-23T15:49:45.835Z,51.86
2019-04-23T15:50:48.767Z,52.54
2019-04-23T15:52:58.845Z,51.28
2019-04-23T15:53:41.963Z,51.76
2019-04-23T15:54:45.149Z,51.38
2019-04-23T15:55:49.278Z,51.68
2019-04-23T15:58:58.341Z,51.56
2019-04-23T15:59:47.873Z,50.95
2019-04-23T16:00:47.254Z,51.66
2019-04-23T16:01:37.115Z,51.15
2019-04-23T16:02:14.906Z,51.07
2019-04-23T16:03:15.590Z,53.50
2019-04-23T16:04:16.584Z,53.20
2019-04-23T16:05:15.184Z,53.00
2019-04-23T16:06:18.557Z,53.00
2019-04-23T16:07:31.451Z,53.30
2019-04-23T16:08:54.241Z,53.70
2019-04-23T16:09:50.866Z,54.61
2019-04-23T16:10:49.185Z,55.52
2019-04-23T16:11:44.037Z,53.90